Station Historical Data
Daily Summary for November 27, 2017 Units:  English    Metric   Both
Next Day »
Daily Weekly Monthly Yearly Custom
  High: Low: Average:
Temperature: 45.4 °F 36.1 °F 40.8 °F
Dew Point: 44.3 °F 34.8 °F 39.4 °F
Humidity: 100% 91% 95%
Wind Speed: 12.0mph 0.0mph 0.6mph
Wind Gust: 18.0mph - -
Wind- - SE
Pressure: 30.20 in 29.88 in -
Precipitation: 0.00 in    
Historical Graphs
 
 
Tabular Data for November 27, 2017
Time Temperature Dew Point Pressure Wind Wind Speed Wind Gust Humidity Rainfall Rate (Hourly) solar Conditions
00:03 45.4 °F 44.0 °F 29.92 in Calm     95% 0.00 in 0.00 W/m2
00:08 45.4 °F 44.3 °F 29.91 in Calm     96% 0.00 in 0.00 W/m2
00:13 45.3 °F 44.0 °F 29.91 in Calm     95% 0.00 in 0.00 W/m2
00:18 45.4 °F 44.0 °F 29.91 in Calm     95% 0.00 in 0.00 W/m2
00:23 45.3 °F 44.0 °F 29.91 in Calm     95% 0.00 in 0.00 W/m2
00:28 45.3 °F 44.0 °F 29.91 in Calm     95% 0.00 in 0.00 W/m2
00:33 45.3 °F 44.0 °F 29.91 in Calm     95% 0.00 in 0.00 W/m2
00:38 45.2 °F 43.9 °F 29.91 in Calm     95% 0.00 in 0.00 W/m2
00:43 45.2 °F 43.9 °F 29.91 in Calm     95% 0.00 in 0.00 W/m2
00:48 45.2 °F 43.9 °F 29.91 in Calm     95% 0.00 in 0.00 W/m2
00:53 45.2 °F 44.1 °F 29.91 in Calm     96% 0.00 in 0.00 W/m2
00:58 45.2 °F 44.1 °F 29.91 in Calm     96% 0.00 in 0.00 W/m2
01:03 45.2 °F 44.1 °F 29.91 in Calm     96% 0.00 in 0.00 W/m2
01:08 45.2 °F 44.1 °F 29.91 in Calm     96% 0.00 in 0.00 W/m2
01:13 45.1 °F 44.0 °F 29.91 in Calm     96% 0.00 in 0.00 W/m2
01:18 45.1 °F 44.0 °F 29.92 in Calm     96% 0.00 in 0.00 W/m2
01:23 45.1 °F 44.0 °F 29.92 in Calm   9.0 mph 96% 0.00 in 0.00 W/m2
01:28 45.1 °F 44.0 °F 29.92 in SW 3.0 mph 11.0 mph 96% 0.00 in 0.00 W/m2
01:33 45.0 °F 43.9 °F 29.92 in Calm   5.0 mph 96% 0.00 in 0.00 W/m2
01:38 45.0 °F 43.9 °F 29.92 in Calm     96% 0.00 in 0.00 W/m2
01:43 44.9 °F 43.8 °F 29.92 in Calm     96% 0.00 in 0.00 W/m2
01:48 44.9 °F 43.8 °F 29.91 in South 4.0 mph 12.0 mph 96% 0.00 in 0.00 W/m2
01:54 44.9 °F 43.8 °F 29.91 in SSW 10.0 mph 14.0 mph 96% 0.00 in 0.00 W/m2
01:59 44.8 °F 43.7 °F 29.91 in SSW 7.0 mph 10.0 mph 96% 0.00 in 0.00 W/m2
02:04 44.7 °F 43.4 °F 29.91 in Calm   4.0 mph 95% 0.00 in 0.00 W/m2
02:14 44.5 °F 43.2 °F 29.90 in Calm     95% 0.00 in 0.00 W/m2
02:19 44.4 °F 43.1 °F 29.90 in Calm     95% 0.00 in 0.00 W/m2
02:24 44.4 °F 43.1 °F 29.90 in Calm     95% 0.00 in 0.00 W/m2
02:29 44.4 °F 43.1 °F 29.90 in Calm     95% 0.26 in 0.00 W/m2
02:34 44.3 °F 43.2 °F 29.89 in Calm     96% 0.08 in 0.00 W/m2
02:39 44.3 °F 43.2 °F 29.89 in Calm     96% 0.05 in 0.00 W/m2
02:44 44.3 °F 43.0 °F 29.88 in Calm     95% 0.00 in 0.00 W/m2
02:49 44.2 °F 42.9 °F 29.88 in Calm     95% 0.00 in 0.00 W/m2
02:54 44.1 °F 42.8 °F 29.88 in Calm     95% 0.00 in 0.00 W/m2
02:59 44.0 °F 42.7 °F 29.88 in Calm     95% 0.00 in 0.00 W/m2
03:04 43.9 °F 42.6 °F 29.88 in Calm     95% 0.00 in 0.00 W/m2
03:09 43.8 °F 42.5 °F 29.88 in Calm     95% 0.00 in 0.00 W/m2
03:14 43.7 °F 42.4 °F 29.88 in Calm     95% 0.00 in 0.00 W/m2
03:19 43.5 °F 42.2 °F 29.88 in Calm     95% 0.05 in 0.00 W/m2
03:24 43.4 °F 42.1 °F 29.89 in Calm     95% 0.44 in 0.00 W/m2
03:29 43.2 °F 41.9 °F 29.90 in Calm     95% 0.62 in 0.00 W/m2
03:34 42.7 °F 41.1 °F 29.92 in West 7.0 mph 16.0 mph 94% 0.45 in 0.00 W/m2
03:39 41.1 °F 38.7 °F 29.92 in Calm   13.0 mph 91% 0.50 in 0.00 W/m2
03:44 40.1 °F 38.0 °F 29.92 in Calm   10.0 mph 92% 0.33 in 0.00 W/m2
03:49 39.6 °F 37.8 °F 29.92 in Calm     93% 0.25 in 0.00 W/m2
03:54 39.3 °F 37.7 °F 29.93 in West 1.0 mph 1.0 mph 94% 0.20 in 0.00 W/m2
03:59 39.2 °F 37.9 °F 29.93 in Calm   1.0 mph 95% 0.23 in 0.00 W/m2
04:04 39.2 °F 37.9 °F 29.93 in Calm     95% 0.28 in 0.00 W/m2
04:09 39.1 °F 37.8 °F 29.94 in Calm     95% 0.22 in 0.00 W/m2
04:14 39.1 °F 37.8 °F 29.94 in WSW 6.0 mph 11.0 mph 95% 0.19 in 0.00 W/m2
04:19 39.1 °F 37.8 °F 29.94 in Calm   9.0 mph 95% 0.24 in 0.00 W/m2
04:24 38.9 °F 37.6 °F 29.95 in Calm     95% 0.25 in 0.00 W/m2
04:29 38.8 °F 37.5 °F 29.95 in Calm     95% 0.24 in 0.00 W/m2
04:34 38.7 °F 37.4 °F 29.95 in Calm     95% 0.26 in 0.00 W/m2
04:39 38.7 °F 37.4 °F 29.95 in Calm     95% 0.20 in 0.00 W/m2
04:44 38.8 °F 37.5 °F 29.95 in Calm     95% 0.15 in 0.00 W/m2
04:49 38.7 °F 37.4 °F 29.96 in Calm     95% 0.15 in 0.00 W/m2
04:54 38.7 °F 37.4 °F 29.96 in Calm     95% 0.21 in 0.00 W/m2
04:55 38.7 °F 37.4 °F 29.96 in Calm     95% 0.21 in 0.00 W/m2
05:00 38.6 °F 37.3 °F 29.96 in Calm     95% 0.16 in 0.00 W/m2
05:05 38.5 °F 37.2 °F 29.97 in Calm     95% 0.13 in 0.00 W/m2
05:10 38.5 °F 37.2 °F 29.97 in Calm     95% 0.10 in 0.00 W/m2
05:15 38.5 °F 37.2 °F 29.97 in Calm     95% 0.13 in 0.00 W/m2
05:20 38.4 °F 37.1 °F 29.98 in Calm     95% 0.09 in 0.00 W/m2
05:25 38.3 °F 37.0 °F 29.97 in ESE 12.0 mph 12.0 mph 95% 0.09 in 0.00 W/m2
05:30 38.1 °F 36.8 °F 29.98 in ESE 2.0 mph 13.0 mph 95% 0.05 in 0.00 W/m2
05:35 37.9 °F 36.6 °F 29.98 in ESE 5.0 mph 14.0 mph 95% 0.05 in 0.00 W/m2
05:40 37.7 °F 36.4 °F 29.98 in ESE 2.0 mph 11.0 mph 95% 0.05 in 0.00 W/m2
05:45 37.4 °F 35.8 °F 29.98 in ESE 6.0 mph 14.0 mph 94% 0.04 in 0.00 W/m2
05:50 37.1 °F 35.8 °F 29.98 in ESE 8.0 mph 15.0 mph 95% 0.00 in 0.00 W/m2
05:55 37.0 °F 35.7 °F 29.98 in ESE 4.0 mph 14.0 mph 95% 0.00 in 0.00 W/m2
06:00 36.8 °F 35.5 °F 29.99 in East 4.0 mph 14.0 mph 95% 0.00 in 0.00 W/m2
06:05 36.7 °F 36.7 °F 30.00 in East 9.0 mph 16.0 mph 100% 0.00 in 0.00 W/m2
06:10 36.5 °F 35.2 °F 30.00 in ESE 2.0 mph 13.0 mph 95% 0.00 in 0.00 W/m2
06:15 36.3 °F 35.0 °F 30.01 in East 1.0 mph 13.0 mph 95% 0.00 in 0.00 W/m2
06:20 36.3 °F 35.0 °F 30.01 in ESE 6.0 mph 12.0 mph 95% 0.00 in 0.00 W/m2
06:25 36.4 °F 35.1 °F 30.02 in ESE 2.0 mph 15.0 mph 95% 0.00 in 0.00 W/m2
06:30 36.4 °F 35.1 °F 30.02 in ESE 8.0 mph 13.0 mph 95% 0.00 in 0.00 W/m2
06:35 36.4 °F 35.1 °F 30.02 in East 6.0 mph 18.0 mph 95% 0.00 in 0.00 W/m2
06:40 36.2 °F 34.9 °F 30.02 in ESE 11.0 mph 14.0 mph 95% 0.00 in 0.00 W/m2
06:45 36.1 °F 34.8 °F 30.02 in ESE 4.0 mph 11.0 mph 95% 0.00 in 0.00 W/m2
06:50 36.1 °F 34.8 °F 30.02 in ESE 7.0 mph 12.0 mph 95% 0.00 in 0.00 W/m2
06:55 36.1 °F 34.8 °F 30.03 in Calm   11.0 mph 95% 0.00 in 0.00 W/m2
07:00 36.2 °F 34.9 °F 30.03 in ESE 2.0 mph 9.0 mph 95% 0.00 in 0.00 W/m2
07:05 36.2 °F 34.9 °F 30.04 in ESE 7.0 mph 12.0 mph 95% 0.00 in 5.00 W/m2
07:10 36.2 °F 34.9 °F 30.04 in ESE 2.0 mph 9.0 mph 95% 0.00 in 5.00 W/m2
07:15 36.2 °F 34.9 °F 30.04 in Calm   8.0 mph 95% 0.00 in 9.00 W/m2
07:20 36.3 °F 35.3 °F 30.04 in Calm     96% 0.00 in 9.00 W/m2
07:25 36.3 °F 35.3 °F 30.04 in Calm     96% 0.00 in 11.00 W/m2
07:30 36.4 °F 35.4 °F 30.05 in Calm     96% 0.00 in 14.00 W/m2
07:35 36.4 °F 35.4 °F 30.05 in Calm     96% 0.00 in 32.00 W/m2
07:40 36.4 °F 35.4 °F 30.06 in Calm     96% 0.00 in 18.00 W/m2
07:45 36.5 °F 35.5 °F 30.07 in Calm     96% 0.00 in 33.00 W/m2
07:50 36.6 °F 35.6 °F 30.08 in Calm     96% 0.00 in 42.00 W/m2
07:55 36.7 °F 35.7 °F 30.08 in Calm     96% 0.00 in 65.00 W/m2
08:00 36.8 °F 35.8 °F 30.08 in Calm     96% 0.00 in 86.00 W/m2
08:05 37.0 °F 36.0 °F 30.08 in Calm     96% 0.00 in 83.00 W/m2
08:10 37.2 °F 36.2 °F 30.09 in Calm     96% 0.00 in 54.00 W/m2
08:15 37.3 °F 36.3 °F 30.09 in Calm     96% 0.00 in 47.00 W/m2
08:20 37.4 °F 36.4 °F 30.09 in Calm     96% 0.00 in 49.00 W/m2
08:25 37.5 °F 36.5 °F 30.09 in Calm     96% 0.00 in 76.00 W/m2
08:30 37.7 °F 36.7 °F 30.09 in Calm     96% 0.00 in 107.00 W/m2
08:35 37.9 °F 36.9 °F 30.09 in Calm     96% 0.00 in 81.00 W/m2
08:40 37.9 °F 36.9 °F 30.10 in Calm     96% 0.00 in 246.00 W/m2
08:45 38.0 °F 37.0 °F 30.10 in Calm     96% 0.00 in 116.00 W/m2
08:50 38.1 °F 37.1 °F 30.11 in Calm     96% 0.00 in 169.00 W/m2
08:55 38.2 °F 37.2 °F 30.11 in Calm     96% 0.00 in 141.00 W/m2
09:00 38.2 °F 37.2 °F 30.12 in Calm     96% 0.00 in 134.00 W/m2
09:05 38.2 °F 37.2 °F 30.13 in Calm     96% 0.00 in 156.00 W/m2
09:10 38.3 °F 37.3 °F 30.14 in Calm     96% 0.00 in 206.00 W/m2
09:15 38.4 °F 37.4 °F 30.14 in Calm     96% 0.00 in 155.00 W/m2
09:20 38.6 °F 37.6 °F 30.15 in Calm     96% 0.00 in 190.00 W/m2
09:25 38.8 °F 37.8 °F 30.14 in Calm     96% 0.00 in 209.00 W/m2
09:27 38.8 °F 37.8 °F 30.14 in Calm     96% 0.00 in 348.00 W/m2
09:32 39.1 °F 38.1 °F 30.14 in Calm     96% 0.00 in 390.00 W/m2
09:37 39.3 °F 38.3 °F 30.14 in Calm     96% 0.00 in 380.00 W/m2
09:42 39.7 °F 38.7 °F 30.14 in Calm   1.0 mph 96% 0.00 in 387.00 W/m2
09:47 39.8 °F 38.8 °F 30.14 in ESE 1.0 mph 12.0 mph 96% 0.00 in 399.00 W/m2
09:52 40.1 °F 39.0 °F 30.14 in ESE 1.0 mph 1.0 mph 96% 0.00 in 401.00 W/m2
09:57 40.2 °F 39.2 °F 30.14 in Calm   2.0 mph 96% 0.00 in 429.00 W/m2
10:02 40.2 °F 39.2 °F 30.14 in ESE 1.0 mph 1.0 mph 96% 0.00 in 427.00 W/m2
10:07 40.2 °F 39.2 °F 30.14 in ESE 1.0 mph 1.0 mph 96% 0.00 in 436.00 W/m2
10:12 40.2 °F 39.2 °F 30.14 in Calm   1.0 mph 96% 0.00 in 438.00 W/m2
10:17 40.4 °F 39.3 °F 30.14 in Calm   1.0 mph 96% 0.00 in 457.00 W/m2
10:22 40.4 °F 39.3 °F 30.14 in SE 1.0 mph 5.0 mph 96% 0.00 in 455.00 W/m2
10:27 40.5 °F 39.5 °F 30.14 in Calm   8.0 mph 96% 0.00 in 471.00 W/m2
10:32 40.7 °F 39.7 °F 30.14 in Calm   1.0 mph 96% 0.00 in 480.00 W/m2
10:37 40.8 °F 39.8 °F 30.14 in ESE 1.0 mph 1.0 mph 96% 0.00 in 487.00 W/m2
10:42 40.9 °F 39.8 °F 30.15 in Calm   1.0 mph 96% 0.00 in 489.00 W/m2
10:47 40.9 °F 39.8 °F 30.16 in Calm     96% 0.00 in 499.00 W/m2
10:52 41.0 °F 40.0 °F 30.16 in Calm     96% 0.00 in 248.00 W/m2
10:57 41.1 °F 40.0 °F 30.16 in Calm     96% 0.00 in 519.00 W/m2
11:02 41.1 °F 40.0 °F 30.16 in Calm   1.0 mph 96% 0.00 in 547.00 W/m2
11:07 41.1 °F 40.0 °F 30.17 in Calm     96% 0.00 in 654.00 W/m2
11:12 41.2 °F 40.2 °F 30.17 in Calm     96% 0.00 in 207.00 W/m2
11:17 41.3 °F 40.2 °F 30.17 in Calm     96% 0.00 in 265.00 W/m2
11:22 41.3 °F 40.0 °F 30.17 in Calm     95% 0.00 in 199.00 W/m2
11:27 41.5 °F 40.5 °F 30.17 in Calm     96% 0.00 in 176.00 W/m2
11:32 41.5 °F 40.2 °F 30.17 in Calm     95% 0.00 in 171.00 W/m2
11:37 41.6 °F 40.3 °F 30.18 in Calm     95% 0.00 in 232.00 W/m2
11:42 41.7 °F 40.4 °F 30.18 in Calm     95% 0.00 in 223.00 W/m2
11:47 41.7 °F 40.4 °F 30.17 in Calm     95% 0.00 in 264.00 W/m2
11:52 41.7 °F 40.4 °F 30.17 in Calm     95% 0.00 in 225.00 W/m2
11:57 41.7 °F 40.4 °F 30.17 in Calm     95% 0.00 in 188.00 W/m2
12:03 41.8 °F 40.5 °F 30.17 in Calm     95% 0.00 in 125.00 W/m2
12:08 41.8 °F 40.5 °F 30.18 in Calm     95% 0.00 in 90.00 W/m2
12:13 41.7 °F 40.1 °F 30.18 in Calm     94% 0.00 in 88.00 W/m2
12:18 41.6 °F 40.0 °F 30.18 in Calm     94% 0.00 in 95.00 W/m2
12:23 41.5 °F 40.2 °F 30.18 in Calm     95% 0.00 in 169.00 W/m2
12:28 41.5 °F 40.2 °F 30.18 in Calm     95% 0.00 in 308.00 W/m2
12:33 41.5 °F 40.2 °F 30.17 in Calm     95% 0.00 in 594.00 W/m2
12:38 41.6 °F 40.3 °F 30.18 in Calm     95% 0.00 in 225.00 W/m2
12:43 41.6 °F 39.7 °F 30.18 in Calm     93% 0.00 in 199.00 W/m2
12:48 41.6 °F 40.0 °F 30.17 in Calm     94% 0.00 in 174.00 W/m2
12:53 41.7 °F 40.1 °F 30.17 in Calm     94% 0.00 in 141.00 W/m2
12:58 41.6 °F 39.7 °F 30.17 in Calm     93% 0.00 in 116.00 W/m2
13:03 41.7 °F 39.8 °F 30.17 in Calm     93% 0.00 in 149.00 W/m2
13:08 41.8 °F 40.2 °F 30.18 in Calm     94% 0.00 in 213.00 W/m2
13:13 41.9 °F 40.6 °F 30.17 in Calm     95% 0.00 in 330.00 W/m2
13:18 42.1 °F 40.8 °F 30.17 in Calm     95% 0.00 in 501.00 W/m2
13:23 42.2 °F 40.9 °F 30.17 in Calm     95% 0.00 in 475.00 W/m2
13:28 42.4 °F 40.8 °F 30.17 in Calm     94% 0.00 in 450.00 W/m2
13:34 42.5 °F 40.9 °F 30.17 in Calm     94% 0.00 in 466.00 W/m2
13:39 42.6 °F 41.0 °F 30.17 in Calm     94% 0.00 in 118.00 W/m2
13:44 42.6 °F 40.7 °F 30.17 in Calm     93% 0.00 in 469.00 W/m2
13:49 42.5 °F 40.6 °F 30.17 in Calm     93% 0.00 in 445.00 W/m2
13:54 42.5 °F 40.6 °F 30.17 in Calm     93% 0.00 in 431.00 W/m2
13:59 42.4 °F 40.5 °F 30.17 in Calm     93% 0.00 in 438.00 W/m2
14:04 42.5 °F 40.9 °F 30.17 in Calm   1.0 mph 94% 0.00 in 427.00 W/m2
14:09 42.5 °F 40.6 °F 30.17 in Calm     93% 0.00 in 156.00 W/m2
14:14 42.7 °F 41.1 °F 30.17 in Calm     94% 0.00 in 271.00 W/m2
14:19 42.8 °F 41.2 °F 30.17 in Calm     94% 0.00 in 192.00 W/m2
14:24 42.9 °F 41.3 °F 30.17 in Calm     94% 0.00 in 209.00 W/m2
14:29 43.0 °F 41.1 °F 30.17 in Calm     93% 0.00 in 171.00 W/m2
14:34 43.1 °F 41.2 °F 30.17 in Calm     93% 0.00 in 149.00 W/m2
14:39 43.2 °F 41.6 °F 30.17 in Calm     94% 0.00 in 313.00 W/m2
14:44 43.3 °F 41.4 °F 30.17 in Calm     93% 0.00 in 141.00 W/m2
14:49 43.4 °F 41.5 °F 30.17 in Calm     93% 0.00 in 111.00 W/m2
14:54 43.5 °F 41.6 °F 30.17 in Calm     93% 0.00 in 79.00 W/m2
14:59 43.5 °F 41.3 °F 30.17 in Calm     92% 0.00 in 211.00 W/m2
15:05 43.5 °F 41.6 °F 30.17 in Calm     93% 0.00 in 255.00 W/m2
15:10 43.4 °F 41.0 °F 30.17 in Calm     91% 0.00 in 236.00 W/m2
15:15 43.5 °F 41.6 °F 30.17 in Calm     93% 0.00 in 211.00 W/m2
15:20 43.5 °F 41.9 °F 30.17 in Calm     94% 0.00 in 197.00 W/m2
15:25 43.5 °F 41.6 °F 30.17 in Calm     93% 0.00 in 172.00 W/m2
15:30 43.4 °F 41.2 °F 30.17 in Calm     92% 0.00 in 160.00 W/m2
15:35 43.4 °F 41.2 °F 30.17 in Calm     92% 0.00 in 137.00 W/m2
15:40 43.4 °F 41.2 °F 30.17 in Calm     92% 0.00 in 123.00 W/m2
15:45 43.3 °F 41.1 °F 30.17 in Calm     92% 0.00 in 105.00 W/m2
15:50 43.3 °F 41.1 °F 30.18 in Calm     92% 0.00 in 90.00 W/m2
15:55 43.2 °F 41.0 °F 30.18 in Calm     92% 0.00 in 74.00 W/m2
16:00 43.1 °F 40.7 °F 30.18 in Calm     91% 0.00 in 63.00 W/m2
16:05 43.1 °F 40.9 °F 30.18 in Calm     92% 0.00 in 32.00 W/m2
16:10 43.0 °F 40.8 °F 30.19 in Calm     92% 0.00 in 28.00 W/m2
16:15 42.9 °F 40.7 °F 30.19 in Calm     92% 0.00 in 28.00 W/m2
16:20 42.8 °F 40.9 °F 30.19 in Calm     93% 0.00 in 21.00 W/m2
16:25 42.8 °F 40.9 °F 30.19 in Calm     93% 0.00 in 16.00 W/m2
16:30 42.7 °F 40.8 °F 30.20 in Calm     93% 0.00 in 12.00 W/m2
16:35 42.8 °F 40.9 °F 30.20 in Calm     93% 0.00 in 12.00 W/m2
16:40 42.8 °F 40.9 °F 30.20 in Calm     93% 0.00 in 7.00 W/m2
16:45 42.9 °F 41.0 °F 30.20 in Calm     93% 0.00 in 5.00 W/m2
16:50 42.9 °F 41.3 °F 30.20 in Calm     94% 0.00 in 0.00 W/m2
16:55 42.9 °F 41.3 °F 30.20 in Calm     94% 0.00 in 0.00 W/m2
17:00 42.8 °F 41.2 °F 30.20 in Calm     94% 0.00 in 0.00 W/m2
17:05 42.8 °F 41.2 °F 30.20 in Calm     94% 0.00 in 0.00 W/m2
17:10 42.7 °F 41.1 °F 30.20 in Calm     94% 0.00 in 0.00 W/m2
17:15 42.5 °F 40.9 °F 30.20 in Calm     94% 0.00 in 0.00 W/m2
17:20 42.5 °F 40.9 °F 30.20 in Calm     94% 0.00 in 0.00 W/m2
17:25 42.3 °F 40.7 °F 30.20 in Calm     94% 0.00 in 0.00 W/m2
17:30 42.2 °F 40.6 °F 30.20 in Calm     94% 0.00 in 0.00 W/m2
17:35 42.1 °F 40.5 °F 30.19 in Calm     94% 0.00 in 0.00 W/m2
17:40 42.0 °F 40.4 °F 30.19 in Calm     94% 0.00 in 0.00 W/m2
17:45 41.7 °F 40.1 °F 30.19 in Calm     94% 0.00 in 0.00 W/m2
17:50 41.5 °F 39.9 °F 30.20 in Calm     94% 0.00 in 0.00 W/m2
17:55 41.3 °F 39.7 °F 30.19 in Calm     94% 0.00 in 0.00 W/m2
18:00 41.1 °F 39.5 °F 30.19 in Calm     94% 0.00 in 0.00 W/m2
18:05 40.9 °F 39.3 °F 30.19 in Calm     94% 0.00 in 0.00 W/m2
18:10 40.7 °F 39.1 °F 30.19 in Calm     94% 0.00 in 0.00 W/m2
18:15 40.7 °F 39.4 °F 30.18 in Calm     95% 0.00 in 0.00 W/m2
18:20 40.6 °F 39.3 °F 30.19 in Calm     95% 0.00 in 0.00 W/m2
18:25 40.6 °F 39.3 °F 30.18 in Calm     95% 0.00 in 0.00 W/m2
18:31 40.5 °F 39.2 °F 30.18 in Calm     95% 0.00 in 0.00 W/m2
18:36 40.6 °F 39.3 °F 30.18 in Calm     95% 0.00 in 0.00 W/m2
18:41 40.5 °F 39.2 °F 30.18 in Calm     95% 0.00 in 0.00 W/m2
18:46 40.4 °F 39.1 °F 30.18 in Calm     95% 0.00 in 0.00 W/m2
18:51 40.3 °F 39.0 °F 30.18 in Calm     95% 0.00 in 0.00 W/m2
18:56 40.2 °F 38.9 °F 30.18 in Calm     95% 0.00 in 0.00 W/m2
19:01 40.2 °F 38.9 °F 30.17 in Calm     95% 0.00 in 0.00 W/m2
19:06 40.2 °F 38.9 °F 30.18 in Calm     95% 0.00 in 0.00 W/m2
19:11 40.2 °F 38.9 °F 30.18 in Calm     95% 0.00 in 0.00 W/m2
19:16 40.3 °F 39.0 °F 30.18 in Calm     95% 0.00 in 0.00 W/m2
19:21 40.2 °F 38.9 °F 30.18 in Calm     95% 0.00 in 0.00 W/m2
19:26 40.2 °F 38.9 °F 30.18 in Calm     95% 0.00 in 0.00 W/m2
19:31 40.1 °F 38.8 °F 30.18 in Calm     95% 0.00 in 0.00 W/m2
19:36 40.0 °F 38.7 °F 30.18 in Calm     95% 0.00 in 0.00 W/m2
19:41 39.9 °F 38.6 °F 30.18 in Calm     95% 0.00 in 0.00 W/m2
19:46 39.9 °F 38.6 °F 30.18 in Calm     95% 0.00 in 0.00 W/m2
19:51 39.9 °F 38.6 °F 30.18 in Calm     95% 0.00 in 0.00 W/m2
19:56 39.8 °F 38.5 °F 30.18 in Calm     95% 0.00 in 0.00 W/m2
20:01 39.8 °F 38.5 °F 30.18 in Calm     95% 0.00 in 0.00 W/m2
20:06 39.9 °F 38.6 °F 30.18 in Calm     95% 0.00 in 0.00 W/m2
20:11 39.9 °F 38.8 °F 30.18 in Calm     96% 0.00 in 0.00 W/m2
20:16 39.9 °F 38.8 °F 30.18 in Calm     96% 0.00 in 0.00 W/m2
20:21 39.9 °F 38.8 °F 30.18 in Calm     96% 0.00 in 0.00 W/m2
20:26 39.7 °F 38.4 °F 30.18 in Calm     95% 0.00 in 0.00 W/m2
20:31 39.6 °F 38.3 °F 30.18 in Calm     95% 0.00 in 0.00 W/m2
20:36 39.6 °F 38.3 °F 30.18 in Calm     95% 0.00 in 0.00 W/m2
20:41 39.6 °F 38.3 °F 30.18 in Calm     95% 0.00 in 0.00 W/m2
20:46 39.5 °F 38.2 °F 30.18 in Calm     95% 0.00 in 0.00 W/m2
20:51 39.5 °F 38.2 °F 30.18 in Calm     95% 0.00 in 0.00 W/m2
20:56 39.5 °F 38.2 °F 30.18 in Calm     95% 0.00 in 0.00 W/m2
21:01 39.4 °F 38.1 °F 30.18 in Calm     95% 0.00 in 0.00 W/m2
21:06 39.3 °F 38.0 °F 30.18 in Calm     95% 0.00 in 0.00 W/m2
21:11 39.3 °F 38.0 °F 30.18 in Calm     95% 0.00 in 0.00 W/m2
21:17 39.3 °F 38.0 °F 30.18 in Calm     95% 0.00 in 0.00 W/m2
21:21 39.3 °F 38.3 °F 30.18 in Calm     96% 0.00 in 0.00 W/m2
21:27 39.3 °F 38.0 °F 30.18 in Calm     95% 0.00 in 0.00 W/m2
21:32 39.3 °F 38.3 °F 30.18 in Calm     96% 0.00 in 0.00 W/m2
21:37 39.4 °F 38.4 °F 30.18 in Calm     96% 0.00 in 0.00 W/m2
21:42 39.5 °F 38.5 °F 30.18 in Calm   1.0 mph 96% 0.00 in 0.00 W/m2
21:47 39.5 °F 38.5 °F 30.18 in Calm   3.0 mph 96% 0.00 in 0.00 W/m2
21:52 39.5 °F 38.5 °F 30.18 in East 1.0 mph 2.0 mph 96% 0.00 in 0.00 W/m2
21:57 39.5 °F 38.5 °F 30.18 in Calm   2.0 mph 96% 0.00 in 0.00 W/m2
22:02 39.5 °F 38.5 °F 30.18 in Calm   1.0 mph 96% 0.00 in 0.00 W/m2
22:07 39.6 °F 38.6 °F 30.18 in Calm   1.0 mph 96% 0.00 in 0.00 W/m2
22:12 39.5 °F 38.5 °F 30.18 in Calm     96% 0.00 in 0.00 W/m2
22:17 39.5 °F 38.5 °F 30.18 in East 1.0 mph 2.0 mph 96% 0.00 in 0.00 W/m2
22:22 39.5 °F 38.5 °F 30.17 in East 2.0 mph 4.0 mph 96% 0.00 in 0.00 W/m2
22:27 39.4 °F 38.4 °F 30.17 in ESE 2.0 mph 4.0 mph 96% 0.00 in 0.00 W/m2
22:32 39.4 °F 38.1 °F 30.17 in Calm   4.0 mph 95% 0.00 in 0.00 W/m2
22:37 39.3 °F 38.3 °F 30.17 in Calm   9.0 mph 96% 0.00 in 0.00 W/m2
22:42 39.3 °F 38.0 °F 30.17 in East 4.0 mph 8.0 mph 95% 0.00 in 0.00 W/m2
22:47 39.3 °F 38.0 °F 30.17 in ESE 1.0 mph 5.0 mph 95% 0.00 in 0.00 W/m2
22:52 39.4 °F 38.1 °F 30.18 in East 1.0 mph 14.0 mph 95% 0.00 in 0.00 W/m2
22:57 39.4 °F 38.1 °F 30.17 in ESE 1.0 mph 13.0 mph 95% 0.00 in 0.00 W/m2
23:02 39.5 °F 38.2 °F 30.18 in Calm   15.0 mph 95% 0.00 in 0.00 W/m2
23:07 39.5 °F 38.2 °F 30.17 in Calm   11.0 mph 95% 0.00 in 0.00 W/m2
23:12 39.5 °F 38.2 °F 30.18 in Calm   2.0 mph 95% 0.00 in 0.00 W/m2
23:17 39.6 °F 38.3 °F 30.18 in Calm   1.0 mph 95% 0.00 in 0.00 W/m2
23:22 39.6 °F 38.0 °F 30.17 in ESE 1.0 mph 4.0 mph 94% 0.00 in 0.00 W/m2
23:27 39.6 °F 38.0 °F 30.18 in Calm   2.0 mph 94% 0.00 in 0.00 W/m2
23:32 39.6 °F 38.0 °F 30.17 in Calm   4.0 mph 94% 0.00 in 0.00 W/m2
23:37 39.5 °F 37.9 °F 30.17 in Calm   2.0 mph 94% 0.00 in 0.00 W/m2
23:42 39.5 °F 37.9 °F 30.18 in Calm   4.0 mph 94% 0.00 in 0.00 W/m2
23:47 39.5 °F 37.9 °F 30.17 in Calm   2.0 mph 94% 0.00 in 0.00 W/m2
23:52 39.4 °F 37.5 °F 30.18 in Calm   4.0 mph 93% 0.00 in 0.00 W/m2
23:57 39.4 °F 37.5 °F 30.18 in Calm   12.0 mph 93% 0.00 in 0.00 W/m2
Foresthill Weather
 WU-history PHP script courtesy of   Juneau County Weather.
powered by Cumulus v1.9.3 (1059)
Ambient Weather VWS v14.00
Top Contact Website Map Copyright © 2007 - 2018 Foresthillweather.com Never base important decisions on this or any weather information obtained from the Internet